Date,TemperatureHighF,TemperatureAvgF,TemperatureLowF,DewpointHighF,DewpointAvgF,DewpointLowF,HumidityHigh,HumidityAvg,HumidityLow,PressureMaxIn,PressureMinIn,WindSpeedMaxMPH,WindSpeedAvgMPH,GustSpeedMaxMPH,PrecipitationSumIn
2013-1-1,24,17,7,13,7,0,72,64,60,27.64,27.50,7,3,21,0.00
2013-1-2,22,9,-4,14,2,-10,82,73,55,27.88,27.58,4,2,13,0.00
2013-1-3,14,4,-8,-2,-6,-12,84,63,48,27.87,27.67,4,2,8,0.00
2013-1-4,33,19,-2,25,13,-6,87,78,64,27.67,27.49,9,2,21,0.00
2013-1-5,32,27,13,27,18,10,92,71,48,27.96,27.52,7,2,18,0.00
2013-1-6,33,23,12,29,20,9,93,87,79,27.93,27.64,2,0,5,0.00
2013-1-7,32,22,10,29,15,7,92,74,51,28.09,27.67,4,1,10,0.00
2013-1-8,43,21,3,24,14,0,91,75,45,28.10,27.96,5,1,12,0.04
2013-1-9,34,26,15,26,21,13,93,80,70,28.11,27.79,3,1,5,0.04
2013-1-10,41,35,28,27,24,23,81,66,56,28.29,28.01,7,2,22,0.03
2013-1-11,34,28,20,31,24,18,96,88,66,28.28,27.93,4,1,8,0.00
2013-1-12,39,35,32,38,34,31,97,97,96,27.94,27.86,2,0,4,0.01
2013-1-13,42,40,36,41,39,35,98,98,97,27.87,27.71,4,1,8,0.01
2013-1-14,53,41,33,48,35,24,98,81,54,27.99,27.60,7,2,18,0.01
2013-1-15,33,30,27,25,23,20,83,75,66,28.06,27.97,3,1,8,0.00
2013-1-16,29,28,26,28,26,22,96,91,81,27.97,27.52,3,0,5,0.00
2013-1-17,36,25,12,30,20,1,96,80,61,27.84,27.52,5,1,16,0.00
2013-1-18,19,10,2,4,-3,-10,76,57,38,28.08,27.81,7,2,19,0.00
2013-1-19,39,27,11,25,18,5,89,70,52,28.01,27.55,4,1,12,0.05
2013-1-20,35,26,18,26,11,0,68,54,44,27.63,27.53,13,6,26,0.08
2013-1-21,23,18,12,16,6,-2,91,62,43,27.75,27.49,12,2,23,0.01
2013-1-22,17,11,2,15,8,-3,91,87,72,27.73,27.47,1,0,7,0.00
2013-1-23,-3,-6,-9,-10,-14,-17,80,70,61,27.81,27.78,4,1,9,0.00
2013-1-24,11,-1,-14,-7,-13,-19,79,58,34,27.96,27.76,9,3,22,0.00
2013-1-25,11,2,-3,2,-7,-10,74,65,49,28.01,27.78,5,2,11,0.00
2013-1-26,13,7,3,3,-1,-9,82,70,37,27.94,27.74,6,2,15,0.00
2013-1-27,23,13,5,4,-3,-9,79,52,26,28.18,27.94,6,2,15,0.00
2013-1-28,19,12,2,17,6,-6,92,76,54,28.17,27.75,6,1,10,0.00
2013-1-29,31,24,16,29,22,14,96,90,77,27.91,27.76,3,1,6,0.00
2013-1-30,50,37,30,49,36,29,98,97,95,27.83,27.13,6,2,11,0.08
2013-1-31,50,44,38,49,40,33,98,88,77,27.13,26.69,15,9,29,0.89
2013-2-7,18,17,16,2,1,-1,52,49,43,28.20,28.17,3,1,7,0.00
2013-2-8,20,17,14,16,11,-2,92,78,40,28.18,27.57,13,5,20,0.00
2013-2-9,19,13,8,15,7,-1,92,78,62,27.99,27.52,6,3,16,0.00
2013-2-10,31,15,2,8,2,-4,80,59,30,28.17,27.99,5,2,11,0.01
2013-2-11,29,19,8,28,14,3,96,82,51,28.05,27.34,4,1,6,0.01
2013-2-12,39,34,28,31,28,24,97,79,68,27.58,27.34,9,4,22,0.11
2013-2-13,36,30,24,24,21,18,81,69,52,27.58,27.47,4,1,10,0.02
2013-2-14,27,25,23,20,20,19,84,80,74,27.70,27.47,2,0,2,0.02
2013-2-15,46,34,23,30,23,19,85,67,48,27.69,27.61,8,2,20,0.01
2013-2-16,32,28,20,26,18,5,94,69,51,27.71,27.55,4,1,11,0.01
2013-2-17,20,14,10,6,3,0,71,60,51,27.55,27.24,9,4,26,0.00
2013-2-18,26,15,7,2,-3,-7,71,48,23,27.84,27.44,11,4,33,0.00
2013-2-19,40,26,10,32,12,-5,96,60,31,27.87,27.32,9,2,14,0.00
2013-2-20,33,26,21,32,21,13,96,79,66,27.45,27.27,10,4,18,0.00
2013-2-21,21,17,14,18,12,9,90,80,73,27.57,27.45,8,4,16,0.00
2013-2-25,31,30,29,29,28,27,96,94,92,27.96,27.77,1,0,4,0.06
2013-2-26,37,32,28,33,29,27,97,90,79,28.07,27.90,9,2,16,0.09
2013-2-27,34,32,30,32,30,27,96,93,81,27.90,27.39,15,8,24,0.07
2013-2-28,39,32,29,36,30,28,97,95,87,27.39,27.33,5,0,6,0.16
2013-3-2,36,31,25,28,25,22,90,78,66,27.45,27.40,4,2,11,0.00
2013-3-3,34,28,23,27,24,20,91,84,75,27.42,27.34,5,2,12,0.02
2013-3-4,33,27,23,24,21,19,87,81,70,27.56,27.36,6,2,16,0.01
2013-3-5,42,32,23,28,25,19,87,76,57,27.83,27.55,5,1,12,0.01
2013-3-6,34,33,31,30,28,24,90,81,75,27.91,27.83,12,7,23,0.01
2013-3-7,38,33,30,27,24,22,79,72,62,27.91,27.83,8,2,14,0.00
2013-3-8,41,35,29,25,24,22,84,63,50,27.99,27.79,3,1,10,0.00
2013-3-9,55,38,28,24,20,11,78,54,18,28.04,27.97,5,2,12,0.00
2013-3-10,51,46,37,30,27,25,75,50,38,28.08,27.98,8,3,13,0.00
2013-3-11,37,37,37,30,30,30,75,75,75,28.00,28.00,2,2,4,0.00
2013-3-24,41,34,27,25,23,21,79,64,52,27.59,27.51,5,2,16,0.00
2013-3-25,38,27,20,25,22,18,93,80,58,27.54,27.34,1,0,4,0.00
2013-3-26,45,38,31,27,23,20,82,57,39,27.55,27.34,7,2,15,0.01
2013-3-27,46,36,24,32,26,20,94,69,46,27.66,27.52,5,2,16,0.01
2013-3-28,47,38,32,37,32,29,97,81,58,27.79,27.65,4,1,8,0.01
2013-3-29,49,40,34,36,33,29,89,76,55,27.81,27.75,5,1,15,0.01
2013-3-30,50,41,29,31,24,13,86,55,26,27.85,27.78,6,1,13,0.01
2013-3-31,55,40,22,37,23,-100,93,58,29,27.86,27.53,8,2,19,0.10
2013-4-1,49,36,28,43,31,13,97,83,46,27.53,27.27,10,3,23,0.54
2013-4-2,28,26,23,14,11,9,58,54,50,27.60,27.50,7,4,20,0.20
2013-4-3,40,31,23,15,11,6,61,45,25,27.88,27.59,12,6,29,0.00
2013-4-4,51,38,24,19,15,11,64,41,24,27.99,27.71,7,3,18,0.00
2013-4-5,52,40,31,28,24,18,72,53,33,27.71,27.47,6,2,21,0.00
2013-4-6,40,32,25,21,8,2,66,39,22,28.06,27.65,10,3,20,0.00
2013-4-7,56,39,25,32,19,9,63,44,29,28.04,27.67,10,3,21,0.00
2013-4-8,57,49,42,35,32,30,75,55,36,27.86,27.78,6,2,12,0.00
2013-4-9,57,46,41,46,40,31,95,81,56,27.81,27.65,7,2,18,0.18
2013-4-10,51,45,41,46,42,39,97,92,80,27.75,27.65,3,1,8,0.77
2013-4-11,42,41,40,41,40,39,96,96,96,27.70,27.65,1,0,3,0.33
2013-4-13,51,45,39,37,35,33,89,70,53,27.68,27.53,4,2,10,0.11
2013-4-14,45,39,33,36,33,29,94,78,57,27.97,27.65,6,2,17,0.02
2013-4-15,48,34,26,36,30,25,96,85,60,28.12,27.97,4,1,10,0.02
2013-4-16,62,49,38,52,40,31,87,72,56,28.11,27.76,8,4,19,0.02
2013-4-17,57,50,38,34,31,27,67,48,36,28.11,27.95,6,3,16,0.05
2013-4-18,59,46,28,37,30,24,92,57,39,28.17,27.87,12,3,19,0.00
2013-4-19,73,62,51,61,54,37,93,77,56,27.86,27.32,14,5,30,0.28
2013-4-20,56,44,35,54,34,19,94,72,42,27.99,27.40,11,5,23,0.44
2013-4-21,49,37,29,22,19,16,65,48,27,28.43,27.99,6,2,15,0.01
2013-4-22,52,38,24,28,21,17,83,54,29,28.49,28.35,13,4,20,0.00
2013-4-23,39,35,28,35,31,26,93,86,77,28.35,27.94,10,3,16,0.00
2013-4-24,75,55,37,48,41,34,95,64,24,27.95,27.48,6,2,15,0.00
2013-4-25,61,50,37,50,33,24,80,53,31,28.06,27.49,9,3,18,0.00
2013-4-26,56,44,28,36,30,25,89,61,36,28.19,28.06,6,1,15,0.00
2013-4-27,63,49,31,39,31,22,95,57,21,28.19,28.04,5,1,11,0.00
2013-4-28,70,53,32,39,34,-100,90,55,28,28.10,27.93,9,2,16,0.00
2013-4-29,69,56,42,42,38,35,78,54,35,28.01,27.92,9,2,14,0.00
2013-4-30,73,60,51,39,33,23,55,37,26,28.12,28.00,7,2,12,0.00
2013-5-1,75,60,39,37,31,25,75,39,16,28.22,28.12,9,2,14,0.00
2013-5-2,80,58,41,45,38,25,84,51,25,28.26,28.09,14,3,24,0.00
2013-5-3,67,54,39,44,38,28,81,57,38,28.30,28.14,9,3,19,0.00
2013-5-4,72,57,40,48,40,29,96,59,24,28.15,27.99,9,3,18,0.00
2013-5-5,72,55,35,39,35,31,88,51,24,28.09,27.95,8,2,16,0.00
2013-5-6,78,58,37,43,34,19,93,50,12,28.01,27.86,7,2,11,0.00
2013-5-7,82,64,41,52,42,32,94,52,18,27.94,27.82,6,2,11,0.00
2013-5-8,73,62,50,62,55,47,96,81,51,27.98,27.84,12,3,18,0.24
2013-5-9,69,60,55,59,57,53,97,89,65,27.83,27.68,6,2,13,0.23
2013-5-10,76,61,50,61,53,-100,98,81,49,27.75,27.65,6,1,9,0.06
2013-5-11,67,62,58,62,58,55,97,88,79,27.66,27.43,8,2,14,0.54
2013-5-12,64,54,43,57,44,-100,97,72,37,27.55,27.37,8,3,21,0.43
2013-5-13,49,43,39,34,30,27,78,61,49,27.81,27.55,9,5,18,0.01
2013-5-14,54,45,33,36,30,26,91,60,35,27.84,27.74,6,2,14,0.00
2013-5-15,65,45,28,49,37,26,96,79,32,27.81,27.42,6,2,16,0.17
2013-5-16,75,54,46,52,22,-100,97,58,26,27.62,27.39,11,3,26,0.03
2013-5-17,66,52,45,44,33,-100,81,62,34,28.00,27.62,5,2,14,0.01
2013-5-18,71,55,36,47,39,32,96,63,26,28.09,27.99,6,1,12,0.00
2013-5-19,68,54,41,54,48,40,96,83,52,28.10,27.96,7,2,12,0.36
2013-5-20,70,61,53,63,58,52,97,91,78,27.96,27.76,4,1,10,0.39
2013-5-21,78,61,50,67,58,49,98,90,67,27.89,27.65,9,3,17,0.65
2013-5-22,56,51,49,55,50,48,98,97,95,27.74,27.67,6,3,13,0.90
2013-5-23,73,61,51,69,59,50,98,93,83,27.68,27.53,6,2,13,0.42
2013-5-24,66,55,44,63,53,42,98,93,85,27.68,27.42,5,2,12,0.21
2013-5-25,44,41,33,43,39,32,96,94,92,27.68,27.57,5,3,16,0.76
2013-5-26,51,42,33,42,38,32,96,85,67,27.84,27.53,6,3,18,0.42
2013-5-27,67,51,31,43,37,30,97,64,31,27.96,27.83,6,2,19,0.02
2013-5-28,73,56,35,46,41,34,96,63,32,28.03,27.91,5,1,11,0.00
2013-5-29,58,55,51,57,52,43,98,90,64,27.94,27.78,6,2,12,0.23
2013-5-30,85,70,53,67,62,52,99,78,51,27.88,27.79,6,2,13,0.07
2013-5-31,90,75,57,70,62,56,98,69,35,27.89,27.73,7,2,15,0.00
2013-6-1,91,77,61,70,64,60,96,68,38,27.76,27.63,8,2,15,0.00
2013-6-2,89,72,64,72,66,-100,98,84,53,27.64,27.45,9,2,24,1.69
2013-6-3,76,66,55,63,57,48,98,77,46,27.63,27.55,6,2,16,0.32
2013-6-4,65,56,47,48,43,39,80,64,46,27.89,27.62,5,2,14,0.00
2013-6-5,72,58,42,48,42,33,95,58,33,27.99,27.88,4,1,9,0.00
2013-6-6,72,60,50,55,48,39,92,67,39,27.98,27.87,7,2,12,0.04
2013-6-7,55,52,49,53,50,47,97,94,90,27.89,27.67,9,3,14,0.76
2013-6-8,66,58,51,61,55,50,97,90,79,27.81,27.51,5,1,9,0.58
2013-6-9,75,64,55,59,55,51,98,75,44,27.97,27.81,6,2,14,0.01
2013-6-10,70,59,47,60,54,46,98,86,57,28.01,27.80,6,2,12,0.19
2013-6-11,58,55,53,55,54,51,98,95,89,27.80,27.38,8,3,14,1.08
2013-6-12,60,56,53,55,53,51,98,91,80,27.63,27.37,4,1,14,0.52
2013-6-13,65,56,48,57,52,47,98,89,60,27.62,27.50,2,0,6,0.16
2013-6-14,76,63,52,59,52,45,98,73,36,27.60,27.47,5,1,11,0.12
2013-6-15,74,65,54,52,46,41,86,54,33,27.73,27.60,5,2,14,0.00
2013-6-16,72,59,46,59,53,45,97,84,56,27.72,27.50,5,1,11,0.06
2013-6-17,77,64,53,62,58,52,98,83,53,27.70,27.57,5,2,13,0.04
2013-6-18,61,58,55,58,55,53,96,91,78,27.78,27.68,2,0,5,0.10
2013-6-19,65,58,53,50,47,45,86,67,49,27.95,27.87,1,0,4,0.01
2013-6-20,76,58,42,53,47,41,97,72,36,28.06,27.95,4,1,7,0.01
2013-6-22,81,76,68,68,65,63,86,69,55,27.98,27.89,5,2,10,0.00
2013-6-23,85,71,63,76,68,62,98,90,68,27.94,27.76,5,1,9,0.57
2013-6-24,88,74,64,72,68,63,99,84,52,27.81,27.71,5,1,12,0.40
2013-6-25,87,72,63,73,67,62,98,86,55,27.77,27.56,7,1,14,0.44
2013-6-26,73,68,63,71,66,62,99,96,81,27.63,27.55,3,0,7,0.69
2013-6-27,76,68,63,70,65,62,98,93,79,27.63,27.55,9,3,13,0.01
2013-6-28,72,64,58,67,62,57,98,94,83,27.55,27.28,9,4,15,1.12
2013-6-29,79,70,63,71,66,62,99,86,64,27.49,27.30,6,1,17,0.25
2013-6-30,84,71,64,71,66,62,98,84,62,27.73,27.49,4,1,8,0.14
2013-7-1,74,69,64,70,67,63,99,96,85,27.86,27.72,4,0,10,0.80
2013-7-2,78,68,61,73,66,60,99,95,86,27.99,27.84,7,2,11,2.51
2013-7-3,86,74,61,74,68,60,98,85,63,27.98,27.91,6,2,10,1.03
2013-7-4,89,78,67,76,71,66,98,82,58,28.00,27.87,4,1,11,0.06
2013-7-5,89,77,69,76,72,68,99,84,53,27.96,27.85,10,2,17,0.06
2013-7-6,85,75,70,73,69,65,98,83,54,27.89,27.81,5,1,16,0.04
2013-7-7,77,70,65,74,67,63,96,91,82,27.83,27.72,2,0,4,0.04
2013-7-8,82,72,68,73,70,67,98,93,69,27.82,27.73,4,1,8,0.34
2013-7-9,78,73,68,70,68,66,94,84,74,27.90,27.83,6,4,11,0.03
2013-7-10,75,68,66,71,65,-100,98,93,85,27.86,27.58,7,3,11,0.51
2013-7-11,81,73,62,71,66,59,99,82,58,27.79,27.56,4,1,10,0.22
2013-7-12,82,69,58,64,60,57,96,76,49,28.01,27.79,4,1,10,0.01
2013-7-13,77,73,65,69,65,60,94,78,62,28.12,28.01,6,1,8,0.00
2013-7-14,86,75,67,73,69,66,98,83,61,28.12,28.02,4,1,9,0.00
2013-7-15,90,77,65,73,68,64,98,76,44,28.04,27.93,5,1,10,0.00
2013-7-16,88,77,64,72,68,63,96,75,54,28.01,27.96,3,1,9,0.00
2013-7-17,91,78,64,74,69,63,98,78,48,28.00,27.79,5,2,11,0.00
2013-7-18,90,76,70,74,71,69,97,85,56,27.84,27.75,6,1,10,0.02
2013-7-19,91,81,69,77,72,68,98,77,57,27.76,27.50,9,3,19,0.06
2013-7-20,83,75,67,71,68,64,96,79,63,27.61,27.46,7,3,17,0.07
2013-7-21,81,70,59,65,62,58,97,77,52,27.81,27.60,3,1,12,0.00
2013-7-22,75,66,56,68,62,55,97,90,77,27.83,27.70,8,2,13,0.02
2013-7-23,79,68,63,70,65,61,98,92,73,27.70,27.36,6,1,10,1.61
2013-7-24,73,65,52,69,60,46,99,85,63,27.81,27.39,5,1,12,0.01
2013-7-25,72,60,47,60,53,45,93,78,58,27.91,27.80,4,1,6,0.01
2013-7-26,75,64,58,64,59,56,95,85,65,27.90,27.77,5,1,11,0.00
2013-7-27,82,69,56,67,60,54,96,76,48,27.85,27.77,3,1,8,0.00
2013-7-28,81,68,60,70,63,59,98,85,58,27.81,27.75,6,2,12,0.00
2013-7-29,81,70,61,69,64,57,98,82,56,27.86,27.77,4,1,11,0.00
2013-7-30,78,66,55,60,57,52,96,73,45,27.91,27.84,5,1,10,0.00
2013-7-31,79,67,53,63,58,52,98,76,46,27.94,27.83,5,1,9,0.00
2013-8-1,79,64,55,65,60,54,98,89,58,27.84,27.65,5,1,13,0.28
2013-8-2,78,68,62,66,61,56,98,79,48,27.65,27.58,6,2,15,0.15
2013-8-3,75,65,56,64,57,54,98,77,50,27.65,27.57,7,2,17,0.18
2013-8-4,70,62,53,62,56,52,96,82,63,27.70,27.60,4,1,9,0.20
2013-8-5,70,60,51,52,47,35,95,67,28,27.85,27.70,6,2,13,0.12
2013-8-6,76,61,44,56,50,43,97,73,38,27.93,27.85,4,1,8,0.00
2013-8-7,69,58,53,58,54,51,96,87,68,27.97,27.86,3,1,7,0.00
2013-8-8,83,75,64,70,68,58,94,79,64,27.88,27.78,5,2,9,0.00
2013-8-9,74,71,67,72,69,66,98,93,87,27.73,27.56,4,1,11,0.39
2013-8-10,76,70,58,66,55,49,98,62,42,27.82,27.59,6,2,19,0.01
2013-8-11,74,67,56,58,55,51,90,66,48,27.88,27.79,5,2,10,0.00
2013-8-12,77,70,56,60,58,54,93,66,49,27.82,27.71,5,2,12,0.00
2013-8-13,65,64,63,64,63,62,98,98,97,27.50,27.49,1,0,2,0.45
2013-8-14,68,60,54,63,51,-100,98,80,61,27.73,27.47,6,2,20,0.02
2013-8-15,70,54,54,55,37,-100,91,74,56,27.89,27.81,2,0,6,0.00
2013-8-16,76,60,47,58,50,-100,98,77,49,27.99,27.89,4,1,10,0.00
2013-8-17,74,57,50,61,55,49,98,91,56,28.08,27.99,1,0,3,0.00
2013-8-18,76,62,52,64,56,-100,98,84,59,28.08,27.89,2,1,5,0.00
2013-8-19,81,63,53,64,48,-100,98,78,48,27.88,27.75,4,1,11,0.01
2013-8-20,83,68,55,65,58,-100,98,78,46,27.90,27.80,4,1,9,0.01
2013-8-21,84,70,57,67,62,56,98,79,48,27.96,27.82,5,1,12,0.00
2013-8-22,83,69,59,68,62,58,97,82,55,27.83,27.73,5,1,12,0.00
2013-8-23,64,58,54,52,50,49,86,75,62,27.96,27.88,1,1,3,0.16
2013-8-24,76,60,44,56,50,43,97,73,37,28.13,27.96,4,1,7,0.00
2013-8-25,75,56,46,58,48,-100,98,83,48,28.17,28.08,4,1,9,0.00
2013-8-28,84,76,64,71,67,62,97,76,61,27.81,27.66,14,2,19,1.45
2013-8-29,66,62,61,63,61,60,98,96,88,27.86,27.77,2,1,7,1.45
2013-8-30,83,69,62,70,64,61,98,86,58,27.82,27.60,4,1,8,0.00
2013-8-31,78,71,66,72,68,65,98,93,83,27.62,27.56,3,1,6,1.41
2013-9-1,82,73,67,71,67,-100,98,86,64,27.67,27.58,4,1,7,0.43
2013-9-2,76,70,67,72,68,65,98,95,86,27.66,27.51,6,1,9,0.63
2013-9-3,72,66,61,65,63,57,99,88,70,27.60,27.50,4,1,10,0.15
2013-9-4,70,63,57,60,58,56,97,85,65,27.70,27.60,5,2,13,0.01
2013-9-5,65,57,44,55,45,39,95,65,43,27.94,27.75,7,2,11,0.10
2013-9-6,60,44,36,45,40,35,98,88,53,28.03,27.94,2,0,6,0.03
2013-9-8,50,48,46,42,41,40,80,76,71,27.87,27.84,2,0,9,0.02
2013-9-9,68,52,37,53,44,36,97,78,48,28.00,27.87,5,1,12,0.02
2013-9-10,73,60,48,69,59,47,97,94,85,27.90,27.80,2,0,4,0.28
2013-9-11,89,76,67,76,70,66,99,84,56,27.86,27.72,5,1,11,0.01
2013-9-12,83,70,65,74,68,64,99,92,73,27.69,27.46,7,1,16,1.12
2013-9-13,65,60,54,64,59,52,98,95,91,27.60,27.42,3,1,12,1.04
2013-9-14,58,54,49,53,51,48,97,89,77,27.85,27.59,3,1,10,0.02
2013-9-15,67,52,44,53,46,-100,98,86,57,27.94,27.82,3,1,8,0.00
2013-9-16,53,44,39,40,37,35,87,76,62,28.07,27.93,3,1,13,0.09
2013-9-17,63,48,36,48,40,34,96,77,50,28.22,28.07,3,1,12,0.03
2013-9-18,43,41,39,42,40,38,98,97,96,28.11,28.08,1,0,2,0.00
2013-9-19,60,60,60,53,53,53,78,78,78,27.84,27.84,0,0,0,0.00
2013-9-20,68,61,58,58,56,55,91,83,70,27.79,27.78,1,0,3,0.00
2013-9-21,73,62,51,63,57,50,98,83,48,27.78,27.45,6,2,21,0.03
2013-9-22,67,57,47,63,51,-100,97,84,69,27.63,27.36,7,2,19,0.55
2013-9-24,60,52,45,45,43,39,84,71,50,27.74,27.64,6,2,12,0.00
2013-9-25,64,54,48,52,48,44,88,79,63,27.78,27.68,4,1,11,0.00
2013-9-26,64,52,38,51,46,37,97,82,60,27.94,27.79,4,1,9,0.00
2013-9-27,66,55,47,55,50,45,96,85,65,28.07,27.94,4,1,10,0.00
2013-9-28,72,56,45,58,50,44,98,84,50,28.15,28.05,4,1,8,0.00
2013-9-29,72,54,42,56,47,-100,98,81,53,28.06,27.88,7,1,9,0.01
2013-9-30,70,54,39,55,48,38,98,84,55,27.91,27.76,4,1,9,0.01
2013-10-1,60,56,47,57,54,46,96,94,89,27.77,27.68,1,0,2,0.01
2013-10-2,75,61,46,62,55,45,98,83,62,27.73,27.63,7,2,17,0.01
2013-10-3,73,61,49,54,51,47,94,73,42,27.88,27.75,4,1,9,0.00
2013-10-4,67,55,43,57,51,42,98,87,64,27.89,27.82,2,0,5,0.00
2013-10-5,63,59,55,55,52,48,94,81,62,27.91,27.85,3,0,5,0.00
2013-10-6,49,47,46,48,46,44,97,95,86,27.99,27.92,8,5,13,0.25
2013-10-7,68,56,49,66,55,48,98,96,87,27.92,27.48,7,3,15,0.54
2013-10-8,60,51,43,49,42,36,94,71,44,28.13,27.68,6,2,15,0.40
2013-10-9,48,44,41,42,41,39,94,88,80,28.16,28.15,1,0,1,0.00
2013-10-10,62,47,35,51,42,34,97,86,54,28.15,27.98,3,1,5,0.01
2013-10-11,69,52,44,54,47,43,98,86,46,27.98,27.91,2,0,4,0.01
2013-10-12,59,49,38,53,47,37,98,92,81,28.18,27.98,7,2,11,0.00
2013-10-13,60,48,41,50,44,-100,98,87,68,28.23,28.15,7,2,12,0.01
2013-10-14,63,58,48,55,52,46,93,83,70,28.13,28.01,2,0,4,0.00
2013-10-15,62,57,52,55,53,51,96,87,75,28.05,27.94,5,1,8,0.00
2013-10-16,62,55,50,53,50,47,92,85,70,27.94,27.65,6,2,11,0.00
2013-10-17,68,56,50,55,49,46,97,79,52,27.66,27.48,6,1,13,0.09
2013-10-18,60,53,49,52,48,37,98,82,61,27.66,27.37,8,3,18,0.43
2013-10-19,62,51,37,47,42,35,95,71,53,27.72,27.48,6,2,12,0.01
2013-10-20,55,48,41,47,37,-100,92,69,48,27.76,27.43,9,3,17,0.01
2013-10-21,62,47,31,44,39,30,96,74,49,27.86,27.71,5,1,9,0.01
2013-10-22,55,49,40,48,42,31,89,77,62,27.71,27.48,7,2,16,0.00
2013-10-23,51,41,32,37,34,30,94,76,52,27.55,27.36,4,1,8,0.00
2013-10-24,45,40,32,36,32,29,93,76,57,27.62,27.41,10,3,21,0.04
2013-10-25,44,39,34,34,31,28,95,74,55,27.79,27.62,6,2,15,0.04
2013-10-30,46,38,28,35,32,24,94,79,65,28.05,27.94,5,1,10,0.00
2013-10-31,57,40,29,56,38,27,98,95,89,27.99,27.50,4,1,8,0.21
2013-11-1,65,60,54,61,53,42,96,80,52,27.47,27.13,13,6,31,0.60
2013-11-2,53,45,39,43,41,38,96,86,68,27.45,27.38,5,1,12,0.37
2013-11-5,48,33,22,31,25,17,86,74,51,28.44,28.24,5,1,11,0.00
2013-11-6,57,44,32,45,38,29,94,80,62,28.23,27.73,5,2,13,0.00
2013-11-7,54,47,36,53,43,27,96,86,69,27.73,27.46,8,2,17,0.14
2013-11-8,39,33,27,33,27,23,93,77,63,27.81,27.58,7,2,16,0.03
2013-11-9,41,34,31,30,22,-100,90,63,50,27.92,27.75,7,2,21,0.02
2013-11-10,43,36,32,40,34,30,96,93,87,27.75,27.47,7,1,18,0.16
2013-11-11,43,38,33,33,30,27,93,72,54,27.82,27.60,6,3,14,0.02
2013-11-12,42,28,25,35,21,16,94,75,64,27.93,27.60,6,3,16,0.00
2013-11-14,44,37,27,31,27,19,88,68,56,27.83,27.77,7,2,14,0.00
2013-11-15,54,36,25,29,23,19,93,65,26,27.92,27.83,4,1,7,0.00
2013-11-16,58,46,34,31,26,-100,78,49,33,28.06,28.01,3,1,6,0.00
2013-11-17,46,42,32,45,40,28,97,92,73,28.04,27.60,7,4,12,0.08
2013-11-18,55,51,47,54,49,46,98,92,79,27.58,27.24,10,4,26,0.44
2013-12-2,39,33,30,35,31,28,95,91,83,27.78,27.65,2,0,4,0.00
2013-12-3,37,32,30,34,31,28,97,95,85,27.71,27.64,4,1,7,0.00
2013-12-4,33,31,30,30,26,23,90,81,75,27.74,27.70,3,2,10,0.00
2013-12-8,23,23,23,15,15,15,71,71,70,28.22,28.21,1,1,2,0.00
2013-12-9,27,24,21,26,21,13,96,86,64,28.20,27.60,10,4,16,0.00
2013-12-10,32,27,21,28,21,10,97,78,58,27.63,27.50,8,2,17,0.00
2013-12-11,26,23,17,20,15,11,91,72,55,27.85,27.77,7,4,16,0.00
2013-12-12,16,13,12,13,10,9,89,87,86,27.88,27.85,2,1,7,0.00
2013-12-16,12,4,-2,3,-2,-7,79,73,62,27.91,27.79,3,1,8,0.00
2013-12-17,10,1,-13,7,-4,-17,89,81,61,27.96,27.74,6,1,10,0.00
2013-12-18,28,17,7,21,13,5,91,84,69,27.73,27.63,5,1,10,0.00
2013-12-19,35,29,24,28,24,21,91,79,63,27.79,27.65,5,2,12,0.00
2013-12-20,36,35,35,35,34,34,97,96,95,27.67,27.65,1,0,2,0.12
2013-12-21,48,40,35,44,37,-100,97,93,82,27.65,27.58,2,0,3,0.14
2013-12-22,41,35,32,40,34,32,98,97,97,27.75,27.52,7,3,12,0.18
2013-12-23,35,33,31,34,32,30,98,98,92,27.86,27.72,6,1,10,0.21
2013-12-24,31,24,12,28,17,7,90,76,58,27.94,27.79,4,2,10,0.02
2013-12-25,17,9,3,6,1,-4,82,69,53,28.22,27.95,6,2,13,0.00
2013-12-26,25,20,13,23,16,6,95,86,69,28.16,27.81,5,2,8,0.00
2013-12-27,31,25,21,22,20,18,94,80,62,27.94,27.88,7,2,14,0.00
2013-12-28,38,30,21,32,24,-100,91,82,73,27.90,27.70,3,1,10,0.01
2013-12-29,36,31,25,33,29,24,97,93,83,27.74,27.32,2,0,5,0.01
2013-12-30,35,24,2,33,21,-1,97,88,74,27.90,27.31,0,0,0,0.01
2013-12-31,14,6,-2,10,0,-6,93,80,62,27.90,27.71,2,0,5,0.01
2014-1-1,19,12,6,9,6,1,88,76,57,28.08,27.82,10,3,21,0.00
2014-1-2,7,4,0,2,0,-3,87,83,77,28.09,27.64,2,0,4,0.00